Time;durP1;ratioP1;P1;durP2;ratioP2;P2;SDS_P1;SDS_P2;PMS_P1;PMS_P2;Temp;Humidity;BMP_temperature;BMP_pressure;BME280_temperature;BME280_humidity;BME280_pressure;Samples;Min_cycle;Max_cycle;Signal;HPM_P1;HPM_P2
2023/04/18 00:02:16;;;;;;;;;;;;;;;14.51;65.02;100208.47;5424253;32;34713;-68
2023/04/18 00:05:18;;;;;;;;;;;;;;;14.51;64.98;100219.06;5431684;32;35140;-68
2023/04/18 00:08:20;;;;;;;;;;;;;;;14.42;66.07;100216.91;5415332;32;35295;-66
2023/04/18 00:11:22;;;;;;;;;;;;;;;13.86;68.16;100214.84;5412397;32;34253;-67
2023/04/18 00:14:24;;;;;;;;;;;;;;;13.96;68.39;100224.78;5424008;32;34734;-66
2023/04/18 00:17:26;;;;;;;;;;;;;;;14.03;67.96;100218.22;5400282;32;34905;-67
2023/04/18 00:20:28;;;;;;;;;;;;;;;13.64;69.38;100228.34;5432225;32;35100;-67
2023/04/18 00:23:32;;;;;;;;;;;;;;;13.99;67.97;100227.28;5423522;32;34894;-66
2023/04/18 00:26:34;;;;;;;;;;;;;;;13.95;68.57;100228.38;5432310;32;34209;-65
2023/04/18 00:29:36;;;;;;;;;;;;;;;13.62;69.54;100231.06;5398125;32;35298;-67
2023/04/18 00:32:38;;;;;;;;;;;;;;;13.79;68.96;100228.38;5419489;32;35848;-68
2023/04/18 00:35:39;;;;;;;;;;;;;;;13.75;69.72;100233.91;5425273;32;35396;-69
2023/04/18 00:38:41;;;;;;;;;;;;;;;13.64;69.71;100233.63;5423750;32;44677;-67
2023/04/18 00:41:43;;;;;;;;;;;;;;;13.94;68.64;100228.47;5432584;32;34423;-66
2023/04/18 00:44:45;;;;;;;;;;;;;;;14.29;67.11;100229.97;5423867;32;34872;-66
2023/04/18 00:47:48;;;;;;;;;;;;;;;14.02;68.19;100226.25;5429280;32;35412;-65
2023/04/18 00:50:50;;;;;;;;;;;;;;;14.08;67.99;100232.03;5420458;32;34633;-68
2023/04/18 00:53:52;;;;;;;;;;;;;;;14.34;67.13;100230.56;5429193;32;34674;-67
2023/04/18 00:56:54;;;;;;;;;;;;;;;13.40;70.49;100228.75;5424392;32;34701;-67
2023/04/18 00:59:56;;;;;;;;;;;;;;;14.13;68.78;100229.16;5424413;32;35014;-66
2023/04/18 01:02:58;;;;;;;;;;;;;;;14.41;67.22;100225.78;5432862;32;35016;-66
2023/04/18 01:06:00;;;;;;;;;;;;;;;14.25;67.64;100225.81;5423381;32;35065;-68
2023/04/18 01:09:04;;;;;;;;;;;;;;;13.55;70.33;100224.44;5432751;32;34589;-67
2023/04/18 01:12:06;;;;;;;;;;;;;;;13.89;69.42;100226.06;5422745;32;35937;-69
2023/04/18 01:15:08;;;;;;;;;;;;;;;13.81;69.85;100204.50;5430798;32;35157;-68
2023/04/18 01:18:10;;;;;;;;;;;;;;;14.18;68.16;100218.31;5423805;32;35364;-66
2023/04/18 01:21:13;;;;;;;;;;;;;;;14.29;67.07;100221.19;5415458;32;46057;-66
2023/04/18 01:24:15;;;;;;;;;;;;;;;14.19;66.01;100218.22;5423353;32;34952;-66
2023/04/18 01:27:17;;;;;;;;;;;;;;;15.07;63.01;100195.44;5415840;32;34349;-67
2023/04/18 01:30:19;;;;;;;;;;;;;;;14.39;64.90;100206.50;5411418;32;34323;-67
2023/04/18 01:33:21;;;;;;;;;;;;;;;14.74;63.96;100216.84;5417552;32;35080;-67
2023/04/18 01:36:23;;;;;;;;;;;;;;;14.63;63.53;100228.94;5429007;32;34561;-66
2023/04/18 01:39:25;;;;;;;;;;;;;;;14.25;65.06;100214.38;5426143;32;34599;-67
2023/04/18 01:42:27;;;;;;;;;;;;;;;14.12;65.47;100219.50;5409689;32;34937;-65
2023/04/18 01:45:29;;;;;;;;;;;;;;;14.30;65.40;100217.63;5430995;32;34885;-69
2023/04/18 01:48:32;;;;;;;;;;;;;;;14.08;65.69;100215.31;5396315;32;34916;-66
2023/04/18 01:51:33;;;;;;;;;;;;;;;14.50;64.45;100222.66;5429723;32;35135;-66
2023/04/18 01:54:35;;;;;;;;;;;;;;;14.19;65.78;100220.03;5422563;32;34809;-68
2023/04/18 01:57:37;;;;;;;;;;;;;;;13.95;66.12;100216.97;5427535;32;35853;-66
2023/04/18 02:00:39;;;;;;;;;;;;;;;14.50;64.11;100220.00;5426804;32;34423;-65
2023/04/18 02:03:41;;;;;;;;;;;;;;;14.08;65.96;100224.09;5411948;32;44663;-66
2023/04/18 02:06:44;;;;;;;;;;;;;;;14.07;64.84;100230.34;5430316;32;36986;-67
2023/04/18 02:09:45;;;;;;;;;;;;;;;13.80;66.66;100226.59;5421868;32;34878;-67
2023/04/18 02:12:47;;;;;;;;;;;;;;;14.21;64.90;100226.06;5431715;32;35476;-66
2023/04/18 02:15:49;;;;;;;;;;;;;;;13.41;68.02;100230.44;5421621;32;36292;-67
2023/04/18 02:18:51;;;;;;;;;;;;;;;13.24;68.29;100227.84;5427493;32;35676;-66
2023/04/18 02:21:53;;;;;;;;;;;;;;;13.65;66.79;100220.34;5427861;32;34615;-67
2023/04/18 02:24:55;;;;;;;;;;;;;;;13.91;66.39;100220.69;5422316;32;35358;-67
2023/04/18 02:27:57;;;;;;;;;;;;;;;13.86;66.17;100223.63;5431384;32;35530;-66
2023/04/18 02:30:59;;;;;;;;;;;;;;;13.82;65.71;100203.56;5399848;32;35181;-67
2023/04/18 02:34:01;;;;;;;;;;;;;;;13.75;67.13;100234.75;5430514;32;35635;-67
2023/04/18 02:37:03;;;;;;;;;;;;;;;14.33;64.69;100226.22;5421596;32;35172;-66
2023/04/18 02:40:06;;;;;;;;;;;;;;;14.22;65.71;100235.69;5425590;32;34934;-68
2023/04/18 02:43:08;;;;;;;;;;;;;;;14.28;64.57;100216.84;5427663;32;35942;-67
2023/04/18 02:46:09;;;;;;;;;;;;;;;14.49;63.93;100228.88;5420711;32;34950;-67
2023/04/18 02:49:11;;;;;;;;;;;;;;;14.38;64.18;100241.81;5412281;32;45913;-68
2023/04/18 02:52:13;;;;;;;;;;;;;;;14.53;63.89;100233.03;5413719;32;34297;-67
2023/04/18 02:55:15;;;;;;;;;;;;;;;14.70;63.86;100239.16;5427980;32;34904;-65
2023/04/18 02:58:17;;;;;;;;;;;;;;;14.20;64.66;100243.72;5419384;32;34595;-66
2023/04/18 03:01:19;;;;;;;;;;;;;;;13.99;66.16;100237.84;5426018;32;35419;-68
2023/04/18 03:04:21;;;;;;;;;;;;;;;14.45;64.01;100239.69;5426271;32;35123;-69
2023/04/18 03:07:23;;;;;;;;;;;;;;;14.20;64.41;100248.16;5421565;32;34751;-66
2023/04/18 03:10:25;;;;;;;;;;;;;;;14.34;64.11;100242.94;5429509;32;34566;-67
2023/04/18 03:13:27;;;;;;;;;;;;;;;13.80;66.23;100247.72;5421256;32;34691;-69
2023/04/18 03:16:29;;;;;;;;;;;;;;;13.93;66.11;100229.41;5430875;32;34257;-67
2023/04/18 03:19:31;;;;;;;;;;;;;;;14.84;63.50;100249.78;5421849;32;34321;-67
2023/04/18 03:22:33;;;;;;;;;;;;;;;14.18;64.92;100248.25;5428557;32;34610;-67
2023/04/18 03:25:35;;;;;;;;;;;;;;;14.11;64.29;100243.41;5410737;32;35291;-67
2023/04/18 03:28:37;;;;;;;;;;;;;;;13.61;66.38;100239.94;5424797;32;34158;-69
2023/04/18 03:31:40;;;;;;;;;;;;;;;14.34;64.43;100248.22;5397843;32;34287;-67
2023/04/18 03:34:42;;;;;;;;;;;;;;;14.02;65.87;100253.50;5419605;32;44421;-68
2023/04/18 03:37:44;;;;;;;;;;;;;;;14.02;65.04;100257.94;5418061;32;36369;-68
2023/04/18 03:40:46;;;;;;;;;;;;;;;13.86;66.30;100252.66;5424102;32;37222;-67
2023/04/18 03:43:47;;;;;;;;;;;;;;;13.64;68.30;100254.75;5427786;32;34770;-68
2023/04/18 03:46:49;;;;;;;;;;;;;;;13.92;66.57;100256.78;5427438;32;35036;-67
2023/04/18 03:49:53;;;;;;;;;;;;;;;13.90;67.37;100251.53;5420763;32;35354;-67
2023/04/18 03:52:55;;;;;;;;;;;;;;;13.81;66.99;100241.50;5418107;32;35510;-67
2023/04/18 03:55:57;;;;;;;;;;;;;;;14.13;66.00;100262.66;5423476;32;34968;-66
2023/04/18 03:58:58;;;;;;;;;;;;;;;13.16;68.87;100269.59;5434493;32;34602;-68
2023/04/18 04:02:00;;;;;;;;;;;;;;;13.59;69.04;100265.59;5423438;32;34830;-67
2023/04/18 04:05:03;;;;;;;;;;;;;;;13.77;67.13;100266.34;5426990;32;34340;-66
2023/04/18 04:08:05;;;;;;;;;;;;;;;13.58;68.83;100269.12;5430306;32;35697;-66
2023/04/18 04:11:07;;;;;;;;;;;;;;;13.30;70.09;100282.94;5423422;32;35244;-65
2023/04/18 04:14:09;;;;;;;;;;;;;;;13.15;71.75;100291.63;5431635;32;34899;-65
2023/04/18 04:17:11;;;;;;;;;;;;;;;12.99;71.38;100281.84;5415207;32;46914;-67
2023/04/18 04:20:13;;;;;;;;;;;;;;;13.60;69.62;100287.56;5426891;32;34792;-66
2023/04/18 04:23:15;;;;;;;;;;;;;;;13.74;69.08;100285.03;5407876;32;34734;-66
2023/04/18 04:26:17;;;;;;;;;;;;;;;13.43;69.82;100293.72;5424838;32;34350;-66
2023/04/18 04:29:20;;;;;;;;;;;;;;;13.28;70.10;100282.19;5423668;32;35589;-65
2023/04/18 04:32:23;;;;;;;;;;;;;;;13.60;69.08;100298.13;5410165;32;34185;-68
2023/04/18 04:35:26;;;;;;;;;;;;;;;13.46;70.77;100302.34;5432290;32;34449;-66
2023/04/18 04:38:29;;;;;;;;;;;;;;;13.39;71.01;100303.56;5422926;32;35519;-68
2023/04/18 04:41:32;;;;;;;;;;;;;;;13.78;69.72;100292.72;5433485;32;35407;-68
2023/04/18 04:44:34;;;;;;;;;;;;;;;13.12;70.98;100319.00;5422059;32;36291;-67
2023/04/18 04:47:36;;;;;;;;;;;;;;;13.09;71.84;100305.97;5419795;32;35050;-65
2023/04/18 04:50:38;;;;;;;;;;;;;;;13.92;70.05;100310.47;5429119;32;35392;-68
2023/04/18 04:53:40;;;;;;;;;;;;;;;13.39;71.79;100321.19;5421929;32;45442;-69
2023/04/18 04:56:42;;;;;;;;;;;;;;;14.21;69.91;100310.66;5431910;32;34409;-66
2023/04/18 04:59:44;;;;;;;;;;;;;;;14.20;70.16;100308.94;5422960;32;35098;-66
2023/04/18 05:02:46;;;;;;;;;;;;;;;13.79;71.29;100318.19;5412986;32;35694;-68
2023/04/18 05:05:49;;;;;;;;;;;;;;;14.16;70.60;100310.03;5423394;32;36326;-68
2023/04/18 05:08:50;;;;;;;;;;;;;;;14.08;69.25;100310.47;5414421;32;34908;-68
2023/04/18 05:11:52;;;;;;;;;;;;;;;14.35;68.79;100310.72;5418842;32;35291;-66
2023/04/18 05:14:54;;;;;;;;;;;;;;;14.63;67.88;100318.00;5413217;32;34185;-66
2023/04/18 05:17:56;;;;;;;;;;;;;;;14.02;68.30;100311.66;5424130;32;35210;-69
2023/04/18 05:20:58;;;;;;;;;;;;;;;13.51;70.77;100326.69;5421884;32;34822;-66
2023/04/18 05:24:00;;;;;;;;;;;;;;;13.70;70.38;100318.66;5428736;32;32917;-68
2023/04/18 05:27:02;;;;;;;;;;;;;;;13.97;68.22;100318.13;5397136;32;34599;-66
2023/04/18 05:30:04;;;;;;;;;;;;;;;13.73;69.64;100325.59;5391787;32;35016;-68
2023/04/18 05:33:06;;;;;;;;;;;;;;;13.38;69.41;100333.53;5418189;32;34639;-67
2023/04/18 05:36:08;;;;;;;;;;;;;;;14.20;68.17;100325.66;5410779;32;34158;-67
2023/04/18 05:39:10;;;;;;;;;;;;;;;13.40;69.43;100315.88;5418997;32;45220;-67
2023/04/18 05:42:12;;;;;;;;;;;;;;;13.62;69.03;100333.22;5402100;32;34201;-69
2023/04/18 05:45:14;;;;;;;;;;;;;;;13.58;69.09;100334.31;5428926;32;33293;-67
2023/04/18 05:48:16;;;;;;;;;;;;;;;13.53;68.93;100331.91;5415444;32;35276;-64
2023/04/18 05:51:18;;;;;;;;;;;;;;;13.65;68.49;100343.59;5418986;32;35024;-68
2023/04/18 05:54:20;;;;;;;;;;;;;;;13.74;69.19;100314.09;5429628;32;34478;-65
2023/04/18 05:57:22;;;;;;;;;;;;;;;15.11;63.86;100324.03;5419009;32;33906;-66
2023/04/18 06:00:24;;;;;;;;;;;;;;;14.43;65.02;100327.03;5431396;32;34303;-65
2023/04/18 06:03:26;;;;;;;;;;;;;;;14.82;64.23;100337.19;5421208;32;34719;-66
2023/04/18 06:06:28;;;;;;;;;;;;;;;14.52;64.30;100323.91;5430401;32;35349;-68
2023/04/18 06:09:30;;;;;;;;;;;;;;;14.35;64.73;100335.37;5411050;32;35023;-64
2023/04/18 06:12:32;;;;;;;;;;;;;;;14.76;62.77;100326.09;5409901;32;35404;-64
2023/04/18 06:15:34;;;;;;;;;;;;;;;15.12;61.93;100336.31;5415064;32;34078;-65
2023/04/18 06:18:36;;;;;;;;;;;;;;;14.82;63.12;100341.63;5402734;32;34015;-66
2023/04/18 06:21:40;;;;;;;;;;;;;;;14.95;62.54;100339.13;5427508;32;35738;-65
2023/04/18 06:24:42;;;;;;;;;;;;;;;14.70;62.49;100344.97;5424219;32;46055;-70
2023/04/18 06:27:44;;;;;;;;;;;;;;;14.95;61.46;100342.63;5429152;32;34184;-65
2023/04/18 06:30:46;;;;;;;;;;;;;;;14.12;64.54;100354.31;5394907;32;35656;-63
2023/04/18 06:33:48;;;;;;;;;;;;;;;14.58;63.37;100350.00;5406386;32;35571;-63
2023/04/18 06:36:50;;;;;;;;;;;;;;;15.51;60.62;100350.78;5426428;32;34335;-62
2023/04/18 06:39:52;;;;;;;;;;;;;;;15.42;60.42;100354.84;5423144;32;35240;-69
2023/04/18 06:42:55;;;;;;;;;;;;;;;15.81;58.72;100350.78;5416102;32;34434;-70
2023/04/18 06:45:57;;;;;;;;;;;;;;;15.72;59.33;100338.94;5423814;32;36391;-64
2023/04/18 06:48:59;;;;;;;;;;;;;;;16.08;58.01;100348.22;5425235;32;35623;-65
2023/04/18 06:52:02;;;;;;;;;;;;;;;16.76;55.48;100346.50;5428124;32;34344;-64
2023/04/18 06:55:04;;;;;;;;;;;;;;;16.49;55.19;100353.56;5418986;32;34295;-64
2023/04/18 06:58:07;;;;;;;;;;;;;;;16.61;55.08;100342.13;5436236;32;34391;-62
2023/04/18 07:01:09;;;;;;;;;;;;;;;16.88;55.40;100346.66;5411041;32;35426;-65
2023/04/18 07:04:14;;;;;;;;;;;;;;;17.56;54.48;100357.06;5412158;32;46952;-65
2023/04/18 07:07:16;;;;;;;;;;;;;;;17.38;53.91;100353.88;5415433;32;34143;-61
2023/04/18 07:10:18;;;;;;;;;;;;;;;17.66;52.30;100357.31;5427769;32;35895;-66
2023/04/18 07:13:20;;;;;;;;;;;;;;;17.75;52.63;100354.03;5412167;32;34193;-62
2023/04/18 07:16:22;;;;;;;;;;;;;;;18.08;51.81;100348.16;5418860;32;35483;-64
2023/04/18 07:19:24;;;;;;;;;;;;;;;17.80;51.49;100360.75;5424925;32;34079;-69
2023/04/18 07:22:26;;;;;;;;;;;;;;;17.82;50.92;100361.47;5429626;32;34194;-63
2023/04/18 07:25:28;;;;;;;;;;;;;;;17.23;52.75;100360.22;5434419;32;34458;-67
2023/04/18 07:28:30;;;;;;;;;;;;;;;17.32;52.15;100365.78;5414502;32;35343;-65
2023/04/18 07:31:32;;;;;;;;;;;;;;;17.93;51.18;100359.88;5409233;32;34199;-64
2023/04/18 07:34:36;;;;;;;;;;;;;;;16.52;54.79;100371.91;5421453;32;34490;-68
2023/04/18 07:37:38;;;;;;;;;;;;;;;17.43;52.42;100372.16;5412969;32;34502;-65
2023/04/18 07:40:40;;;;;;;;;;;;;;;17.14;52.72;100352.87;5427833;32;34817;-72
2023/04/18 07:43:43;;;;;;;;;;;;;;;17.80;51.65;100381.16;5402743;32;44933;-63
2023/04/18 07:46:45;;;;;;;;;;;;;;;18.12;50.68;100373.59;5431129;32;34683;-64
2023/04/18 07:49:47;;;;;;;;;;;;;;;17.85;50.77;100381.69;5417816;32;33496;-64
2023/04/18 07:52:50;;;;;;;;;;;;;;;16.54;54.04;100385.94;5388669;32;34117;-69
2023/04/18 07:55:53;;;;;;;;;;;;;;;17.81;50.69;100367.75;5383443;32;35513;-72
2023/04/18 07:58:55;;;;;;;;;;;;;;;16.37;54.22;100391.47;5405090;32;35493;-70
2023/04/18 08:01:57;;;;;;;;;;;;;;;16.78;53.46;100387.03;5432276;32;34357;-66
2023/04/18 08:04:59;;;;;;;;;;;;;;;17.00;52.74;100394.47;5415742;32;34304;-67
2023/04/18 08:08:01;;;;;;;;;;;;;;;17.01;53.47;100393.53;5411752;32;34381;-65
2023/04/18 08:11:03;;;;;;;;;;;;;;;17.72;50.40;100392.31;5422232;32;34204;-67
2023/04/18 08:14:05;;;;;;;;;;;;;;;17.63;50.51;100395.56;5416988;32;34233;-65
2023/04/18 08:17:07;;;;;;;;;;;;;;;17.27;51.26;100401.56;5417597;32;35428;-66
2023/04/18 08:20:11;;;;;;;;;;;;;;;16.78;53.04;100397.66;5412716;32;35271;-68
2023/04/18 08:23:14;;;;;;;;;;;;;;;17.23;51.60;100400.91;5425813;32;47067;-64
2023/04/18 08:26:16;;;;;;;;;;;;;;;18.00;49.98;100393.91;5419445;32;34220;-80
2023/04/18 08:29:19;;;;;;;;;;;;;;;19.46;46.18;100385.03;5430686;32;34307;-66
2023/04/18 08:32:21;;;;;;;;;;;;;;;19.83;44.79;100390.22;5409431;32;35916;-65
2023/04/18 08:35:23;;;;;;;;;;;;;;;18.74;48.06;100384.22;5426754;32;35689;-66
2023/04/18 08:38:25;;;;;;;;;;;;;;;18.70;47.88;100376.56;5426727;32;35141;-68
2023/04/18 08:41:27;;;;;;;;;;;;;;;20.66;42.93;100381.84;5409488;32;34360;-66
2023/04/18 08:44:29;;;;;;;;;;;;;;;20.61;43.08;100389.41;5414211;32;34185;-70
2023/04/18 08:47:31;;;;;;;;;;;;;;;21.45;40.65;100389.63;5417287;32;34383;-65
2023/04/18 08:50:33;;;;;;;;;;;;;;;19.82;43.66;100393.84;5421769;32;36458;-66
2023/04/18 08:53:38;;;;;;;;;;;;;;;21.56;40.37;100394.91;5407363;32;35462;-63
2023/04/18 08:56:41;;;;;;;;;;;;;;;22.74;38.19;100381.97;5398318;32;43635;-67
2023/04/18 08:59:46;;;;;;;;;;;;;;;22.12;36.80;100383.88;5411361;32;44679;-66
2023/04/18 09:03:01;;;;;;;;;;;;;;;23.61;35.80;100377.50;5422182;32;36860;-64
2023/04/18 09:06:11;;;;;;;;;;;;;;;23.33;33.78;100376.53;5407933;32;34170;-66
2023/04/18 09:09:13;;;;;;;;;;;;;;;21.97;35.00;100383.34;5418352;32;44496;-64
2023/04/18 09:12:21;;;;;;;;;;;;;;;21.65;33.90;100393.28;5414294;32;35402;-69
2023/04/18 09:15:25;;;;;;;;;;;;;;;20.63;37.32;100389.28;5411243;32;34028;-64
2023/04/18 09:18:29;;;;;;;;;;;;;;;20.83;37.28;100385.84;5405210;32;35892;-65
2023/04/18 09:21:31;;;;;;;;;;;;;;;21.44;35.07;100395.94;5421777;32;35560;-67
2023/04/18 09:24:33;;;;;;;;;;;;;;;22.49;33.59;100389.50;5400365;32;34207;-71
2023/04/18 09:27:36;;;;;;;;;;;;;;;21.18;35.10;100398.94;5410908;32;35142;-65
2023/04/18 09:30:39;;;;;;;;;;;;;;;21.12;36.13;100388.75;5384134;32;34264;-66
2023/04/18 09:33:43;;;;;;;;;;;;;;;21.30;35.29;100397.09;5413654;32;44555;-68
2023/04/18 09:36:45;;;;;;;;;;;;;;;21.08;35.91;100392.69;5425389;32;34218;-66
2023/04/18 09:39:48;;;;;;;;;;;;;;;19.93;38.39;100395.69;5410006;32;34262;-65
2023/04/18 09:42:52;;;;;;;;;;;;;;;22.63;34.15;100377.56;5419017;32;35637;-69
2023/04/18 09:45:54;;;;;;;;;;;;;;;21.49;37.75;100394.56;5421961;32;34066;-68
2023/04/18 09:48:56;;;;;;;;;;;;;;;21.41;37.64;100391.72;5419946;32;34434;-65
2023/04/18 09:51:58;;;;;;;;;;;;;;;20.68;39.75;100387.94;5423622;32;34430;-71
2023/04/18 09:55:01;;;;;;;;;;;;;;;21.65;38.73;100387.94;5418466;32;35329;-67
2023/04/18 09:58:03;;;;;;;;;;;;;;;23.58;34.96;100376.91;5421505;32;35577;-74
2023/04/18 10:01:05;;;;;;;;;;;;;;;23.62;35.01;100373.81;5408305;32;35181;-75
2023/04/18 10:04:07;;;;;;;;;;;;;;;22.68;36.44;100375.31;5405835;32;34277;-69
2023/04/18 10:07:09;;;;;;;;;;;;;;;21.81;38.05;100378.47;5411063;32;34096;-79
2023/04/18 10:10:11;;;;;;;;;;;;;;;21.69;36.61;100378.66;5400170;32;44599;-81
2023/04/18 10:13:13;;;;;;;;;;;;;;;21.39;37.78;100376.78;5404003;32;35546;-80
2023/04/18 10:16:15;;;;;;;;;;;;;;;22.72;35.73;100374.03;5403586;32;35438;-72
2023/04/18 10:19:18;;;;;;;;;;;;;;;24.25;33.21;100357.09;5430798;32;37019;-68
2023/04/18 10:22:24;;;;;;;;;;;;;;;21.69;37.02;100375.97;5404879;32;34763;-68
2023/04/18 10:25:38;;;;;;;;;;;;;;;22.35;35.52;100365.78;5415067;32;34695;-63
2023/04/18 10:28:56;;;;;;;;;;;;;;;20.69;37.33;100372.75;5420643;32;44965;-66
2023/04/18 10:32:04;;;;;;;;;;;;;;;21.65;35.67;100371.91;5402581;32;34401;-63
2023/04/18 10:35:06;;;;;;;;;;;;;;;21.37;35.40;100382.25;5417033;32;36703;-64
2023/04/18 10:38:15;;;;;;;;;;;;;;;20.83;35.16;100389.34;5412724;32;34829;-62
2023/04/18 10:41:17;;;;;;;;;;;;;;;19.50;38.21;100369.63;5420110;32;44576;-70
2023/04/18 10:44:21;;;;;;;;;;;;;;;20.64;36.48;100381.12;5410798;32;37732;-64
2023/04/18 10:47:24;;;;;;;;;;;;;;;20.87;36.03;100371.25;5422560;32;34220;-74
2023/04/18 10:50:26;;;;;;;;;;;;;;;21.34;34.50;100374.50;5427826;32;34227;-72
2023/04/18 10:53:28;;;;;;;;;;;;;;;22.60;32.19;100362.59;5427283;32;36309;-66
2023/04/18 10:56:30;;;;;;;;;;;;;;;21.18;34.93;100366.03;5429074;32;34445;-68
2023/04/18 10:59:33;;;;;;;;;;;;;;;21.18;34.82;100348.16;5426679;32;34191;-64
2023/04/18 11:02:34;;;;;;;;;;;;;;;21.63;34.26;100359.47;5443550;32;34240;-70
2023/04/18 11:05:37;;;;;;;;;;;;;;;21.32;34.24;100363.09;5422789;32;34355;-66
2023/04/18 11:08:39;;;;;;;;;;;;;;;21.36;34.47;100365.34;5436582;32;34194;-67
2023/04/18 11:11:42;;;;;;;;;;;;;;;22.19;33.10;100350.22;5415704;32;46768;-67
2023/04/18 11:14:46;;;;;;;;;;;;;;;21.34;34.54;100361.97;5424920;32;34568;-67
2023/04/18 11:18:00;;;;;;;;;;;;;;;22.00;33.12;100360.81;5429346;32;34277;-69
2023/04/18 11:21:03;;;;;;;;;;;;;;;20.18;36.20;100365.28;5425790;32;34343;-70
2023/04/18 11:24:05;;;;;;;;;;;;;;;21.44;33.95;100364.69;5431552;32;34203;-70
2023/04/18 11:27:08;;;;;;;;;;;;;;;21.20;34.51;100372.09;5427584;32;35345;-70
2023/04/18 11:30:10;;;;;;;;;;;;;;;20.25;34.62;100380.66;5418225;32;34251;-72
2023/04/18 11:33:13;;;;;;;;;;;;;;;21.00;33.64;100371.94;5423521;32;45891;-68
2023/04/18 11:36:15;;;;;;;;;;;;;;;21.50;32.30;100374.03;5414836;32;36822;-68
2023/04/18 11:39:17;;;;;;;;;;;;;;;21.68;32.83;100374.28;5430090;32;35849;-68
2023/04/18 11:42:20;;;;;;;;;;;;;;;21.95;32.57;100369.22;5422455;32;33940;-70
2023/04/18 11:45:21;;;;;;;;;;;;;;;21.76;32.46;100369.97;5438117;32;35513;-77
2023/04/18 11:48:32;;;;;;;;;;;;;;;22.26;31.92;100355.87;5420540;32;34332;-68
2023/04/18 11:51:37;;;;;;;;;;;;;;;20.75;34.74;100364.25;5412059;32;34931;-70
2023/04/18 11:54:39;;;;;;;;;;;;;;;21.14;34.55;100359.25;5420706;32;35469;-68
2023/04/18 11:57:42;;;;;;;;;;;;;;;20.52;35.66;100361.63;5416083;32;45593;-71
2023/04/18 12:00:44;;;;;;;;;;;;;;;19.98;37.22;100367.69;5430706;32;34152;-70
2023/04/18 12:03:59;;;;;;;;;;;;;;;19.91;37.02;100360.31;5406204;32;34186;-75
2023/04/18 12:07:02;;;;;;;;;;;;;;;19.33;38.33;100357.62;5416978;32;34241;-76
2023/04/18 12:10:08;;;;;;;;;;;;;;;19.49;37.78;100360.78;5403850;32;35350;-82
2023/04/18 12:13:10;;;;;;;;;;;;;;;20.42;36.48;100354.47;5415521;32;35260;-66
2023/04/18 12:16:12;;;;;;;;;;;;;;;19.95;37.02;100365.25;5423465;32;46460;-70
2023/04/18 12:19:14;;;;;;;;;;;;;;;21.20;34.87;100364.94;5414012;32;33482;-64
2023/04/18 12:22:16;;;;;;;;;;;;;;;19.59;36.87;100347.66;5417365;32;35727;-66
2023/04/18 12:25:21;;;;;;;;;;;;;;;19.97;36.75;100359.81;5419404;32;36198;-74
2023/04/18 12:28:28;;;;;;;;;;;;;;;20.60;34.15;100352.13;5430815;32;34931;-67
2023/04/18 12:31:30;;;;;;;;;;;;;;;21.38;33.57;100365.22;5412762;32;33440;-66
2023/04/18 12:34:32;;;;;;;;;;;;;;;20.67;34.20;100356.84;5430652;32;35463;-66
2023/04/18 12:37:34;;;;;;;;;;;;;;;20.62;34.84;100356.38;5437289;32;34052;-69
2023/04/18 12:40:39;;;;;;;;;;;;;;;21.40;33.53;100357.94;5417943;32;36586;-69
2023/04/18 12:43:41;;;;;;;;;;;;;;;20.27;34.47;100359.19;5425611;32;44655;-65
2023/04/18 12:46:43;;;;;;;;;;;;;;;19.62;33.65;100357.22;5412676;32;35720;-71
2023/04/18 12:49:45;;;;;;;;;;;;;;;19.73;34.00;100360.75;5426972;32;35277;-67
2023/04/18 12:52:48;;;;;;;;;;;;;;;20.26;31.99;100345.00;5433342;32;34871;-80
2023/04/18 12:55:50;;;;;;;;;;;;;;;19.59;30.42;100371.66;5425379;32;34664;-67
2023/04/18 12:58:55;;;;;;;;;;;;;;;20.47;29.33;100355.78;5436531;32;34374;-69
2023/04/18 13:01:57;;;;;;;;;;;;;;;21.40;27.50;100349.91;5416531;32;35442;-69
2023/04/18 13:04:59;;;;;;;;;;;;;;;21.94;26.67;100354.16;5435250;32;34050;-67
2023/04/18 13:08:01;;;;;;;;;;;;;;;20.97;27.98;100350.81;5422913;32;34235;-83
2023/04/18 13:11:07;;;;;;;;;;;;;;;19.94;29.27;100366.22;5424250;32;33825;-67
2023/04/18 13:14:08;;;;;;;;;;;;;;;20.61;28.63;100359.16;5433357;32;35877;-68
2023/04/18 13:17:10;;;;;;;;;;;;;;;20.28;28.54;100352.87;5425406;32;43483;-66
2023/04/18 13:20:13;;;;;;;;;;;;;;;20.96;28.15;100356.28;5428704;32;33921;-66
2023/04/18 13:23:14;;;;;;;;;;;;;;;20.59;29.05;100355.78;5411531;32;34569;-66
2023/04/18 13:26:16;;;;;;;;;;;;;;;20.86;28.41;100350.84;5434969;32;35365;-64
2023/04/18 13:29:18;;;;;;;;;;;;;;;20.71;27.73;100357.44;5424915;32;34245;-67
2023/04/18 13:32:20;;;;;;;;;;;;;;;21.06;27.74;100347.38;5411297;32;34424;-67
2023/04/18 13:35:23;;;;;;;;;;;;;;;21.55;26.02;100345.94;5432966;32;35552;-67
2023/04/18 13:38:26;;;;;;;;;;;;;;;21.75;26.64;100346.88;5422332;32;33873;-68
2023/04/18 13:41:28;;;;;;;;;;;;;;;21.17;27.81;100353.62;5433212;32;35410;-66
2023/04/18 13:44:30;;;;;;;;;;;;;;;20.18;28.53;100359.94;5409391;32;36925;-77
2023/04/18 13:47:32;;;;;;;;;;;;;;;20.40;28.52;100359.91;5431946;32;33739;-72
2023/04/18 13:50:34;;;;;;;;;;;;;;;21.19;26.63;100359.69;5414758;32;34256;-69
2023/04/18 13:53:36;;;;;;;;;;;;;;;19.93;27.17;100371.69;5422546;32;35490;-69
2023/04/18 13:56:38;;;;;;;;;;;;;;;20.34;26.37;100360.38;5435115;32;34142;-73
2023/04/18 13:59:40;;;;;;;;;;;;;;;20.53;26.18;100360.62;5415513;32;44710;-65
2023/04/18 14:02:42;;;;;;;;;;;;;;;20.04;27.27;100366.37;5412847;32;34141;-70
2023/04/18 14:05:44;;;;;;;;;;;;;;;20.18;26.82;100362.59;5412863;32;34245;-66
2023/04/18 14:08:47;;;;;;;;;;;;;;;19.57;26.67;100356.69;5415750;32;34290;-69
2023/04/18 14:11:50;;;;;;;;;;;;;;;19.90;26.57;100354.12;5378079;32;1042062;-69
2023/04/18 14:14:52;;;;;;;;;;;;;;;20.42;25.92;100360.66;5409855;32;34704;-70
2023/04/18 14:17:54;;;;;;;;;;;;;;;20.74;24.74;100352.72;5413103;32;34768;-69
2023/04/18 14:20:56;;;;;;;;;;;;;;;21.40;23.90;100344.56;5420141;32;35401;-67
2023/04/18 14:23:58;;;;;;;;;;;;;;;20.89;24.75;100344.41;5415356;32;34301;-69
2023/04/18 14:27:01;;;;;;;;;;;;;;;21.01;24.68;100341.56;5417182;32;34955;-68
2023/04/18 14:30:05;;;;;;;;;;;;;;;20.74;25.32;100328.69;5411960;32;34198;-68
2023/04/18 14:33:08;;;;;;;;;;;;;;;20.54;24.99;100342.78;5408710;32;35741;-67
2023/04/18 14:36:10;;;;;;;;;;;;;;;20.65;25.52;100340.09;5412478;32;43428;-67
2023/04/18 14:39:12;;;;;;;;;;;;;;;20.22;26.38;100338.22;5421841;32;33534;-68
2023/04/18 14:42:16;;;;;;;;;;;;;;;20.01;26.69;100339.91;5404936;32;35782;-67
2023/04/18 14:45:18;;;;;;;;;;;;;;;20.61;25.76;100343.13;5430876;32;34318;-67
2023/04/18 14:48:20;;;;;;;;;;;;;;;20.04;26.57;100347.69;5418751;32;35427;-68
2023/04/18 14:51:22;;;;;;;;;;;;;;;19.35;27.69;100353.00;5425167;32;34411;-66
2023/04/18 14:54:24;;;;;;;;;;;;;;;20.08;26.67;100349.13;5425975;32;36244;-67
2023/04/18 14:57:26;;;;;;;;;;;;;;;20.17;26.00;100350.25;5414912;32;35530;-68
2023/04/18 15:00:31;;;;;;;;;;;;;;;19.84;26.33;100348.41;5429478;32;35192;-67
2023/04/18 15:03:33;;;;;;;;;;;;;;;20.01;25.81;100343.44;5415258;32;35040;-67
2023/04/18 15:06:36;;;;;;;;;;;;;;;20.44;25.08;100348.00;5422086;32;35446;-67
2023/04/18 15:09:38;;;;;;;;;;;;;;;20.52;24.15;100342.94;5409238;32;34283;-68
2023/04/18 15:12:41;;;;;;;;;;;;;;;20.51;24.64;100353.75;5419256;32;34853;-68
2023/04/18 15:15:49;;;;;;;;;;;;;;;21.10;23.64;100345.28;5425370;32;44739;-67
2023/04/18 15:18:51;;;;;;;;;;;;;;;20.50;24.36;100341.38;5420305;32;35543;-68
2023/04/18 15:21:53;;;;;;;;;;;;;;;20.55;25.11;100348.03;5430004;32;34387;-67
2023/04/18 15:24:55;;;;;;;;;;;;;;;19.80;26.03;100353.13;5426329;32;34979;-66
2023/04/18 15:27:57;;;;;;;;;;;;;;;19.70;25.86;100347.66;5431156;32;34186;-67
2023/04/18 15:30:59;;;;;;;;;;;;;;;20.54;24.97;100349.00;5402735;32;35410;-67
2023/04/18 15:34:01;;;;;;;;;;;;;;;20.51;25.31;100353.75;5425634;32;36613;-67
2023/04/18 15:37:03;;;;;;;;;;;;;;;20.39;25.96;100354.69;5432127;32;34374;-66